3XS7 weather

Public forecast

Using degrees Fahrenheit for public forecast. Weather courtesy of forecast.io.

Closest aviation weather report (METAR) to Bell Training Facility Heliport

Closest report is Fort Worth Alliance Airport, 3.9 nm (7.2 km) SSW. Retrieved 2020/08/14 02:53 UTC (1 hour ago):

KAFW 140253Z 15011KT 10SM CLR 34/18 A2986 RMK AO2 SLP090 T03440178 53013

Closest aviation forecast (TAF) to Bell Training Facility Heliport

Closest forecast is Fort Worth Alliance Airport, 3.9 nm (7.2 km) SSW. Retrieved 2020-08-14 00:22 UTC (4 hours ago):

TAF KAFW 132320Z 1400/1424 17014KT P6SM FEW070 FM140900 21009KT P6SM SCT300 FM141500 23014KT P6SM FEW060 SCT200